Spring Valley, North Carolina
Current Conditions -  °F | °C
As of 6:54 PM on Friday 24 Oct 2014 (Local Time) from KGSO Reporting Station
Broken Clouds Broken Clouds  
Wind Chill: 61°   Ceiling: 25000
Heat Index: 61°   Visibility: 10mi
Dew Point: 41°   Wind: 3mph
Humidity: 48%   Direction: 220°SW
Pressure: 29.97"   Gusts: NA
Location:  36°N, 79.7628°W
Report Text: KGSO 242254Z 22003KT 10SM SCT160 BKN250 16/05 A2997 RMK AO2 SLP145 T01610050
Loading
Personal Weather Stations






























Interactive Weather Map
Tropical Storm Tracking
New forecast layout! Learn more

10-Day Weather Forecast

Advertisements
Track Severe Weather on mobile